Time;durP1;ratioP1;P1;durP2;ratioP2;P2;SDS_P1;SDS_P2;PMS_P1;PMS_P2;Temp;Humidity;BMP_temperature;BMP_pressure;BME280_temperature;BME280_humidity;BME280_pressure;Samples;Min_cycle;Max_cycle;Signal;HPM_P1;HPM_P2
2023/12/12 00:00:19;;;;;;;26.17;13.98;;;;;;;3.96;100.00;92726.94;4990526;28;20182;-77
2023/12/12 00:02:48;;;;;;;29.60;16.55;;;;;;;3.85;100.00;92683.25;4988423;28;20046;-77
2023/12/12 00:05:15;;;;;;;26.92;15.25;;;;;;;4.10;100.00;92726.13;4991093;28;20050;-76
2023/12/12 00:07:42;;;;;;;27.23;17.60;;;;;;;4.20;100.00;92732.63;4988525;28;20047;-76
2023/12/12 00:10:09;;;;;;;37.65;19.52;;;;;;;4.30;100.00;92729.81;4990824;28;20053;-76
2023/12/12 00:12:36;;;;;;;28.67;15.98;;;;;;;4.33;100.00;92716.72;4990386;28;20054;-77
2023/12/12 00:15:03;;;;;;;25.45;13.80;;;;;;;4.43;100.00;92711.34;4994427;28;20054;-78
2023/12/12 00:17:30;;;;;;;20.90;11.65;;;;;;;4.51;100.00;92716.28;4988487;28;20049;-78
2023/12/12 00:19:58;;;;;;;20.98;11.82;;;;;;;4.62;100.00;92712.41;4988189;28;20054;-77
2023/12/12 00:22:25;;;;;;;20.73;11.32;;;;;;;4.65;100.00;92724.78;4991974;28;20049;-77
2023/12/12 00:24:52;;;;;;;26.27;13.50;;;;;;;4.38;100.00;92742.38;4988231;28;20056;-77
2023/12/12 00:27:19;;;;;;;25.23;13.85;;;;;;;4.04;100.00;92728.59;4987952;28;20054;-77
2023/12/12 00:29:46;;;;;;;26.40;14.43;;;;;;;4.05;100.00;92736.03;4988574;28;20042;-77
2023/12/12 00:32:13;;;;;;;30.23;15.77;;;;;;;4.09;100.00;92757.59;4991703;28;20050;-76
2023/12/12 00:34:41;;;;;;;26.48;16.77;;;;;;;3.70;100.00;92736.66;4990044;28;20497;-76
2023/12/12 00:37:09;;;;;;;24.20;15.95;;;;;;;3.49;100.00;92780.56;4995697;28;20046;-76
2023/12/12 00:39:38;;;;;;;26.67;14.93;;;;;;;3.51;100.00;92790.56;4988164;28;20496;-77
2023/12/12 00:42:05;;;;;;;27.98;16.30;;;;;;;3.44;100.00;92791.28;4991722;28;20065;-77
2023/12/12 00:44:32;;;;;;;26.38;16.35;;;;;;;3.56;100.00;92785.75;4987893;28;20057;-77
2023/12/12 00:46:59;;;;;;;28.88;16.13;;;;;;;3.70;100.00;92776.53;4988328;28;20047;-76
2023/12/12 00:49:26;;;;;;;30.50;17.88;;;;;;;3.78;100.00;92783.25;4988276;28;20555;-76
2023/12/12 00:51:53;;;;;;;30.50;16.70;;;;;;;3.79;100.00;92780.53;4987855;28;20046;-77
2023/12/12 00:54:21;;;;;;;33.15;19.55;;;;;;;3.98;100.00;92778.41;4990086;28;20085;-77
2023/12/12 00:56:48;;;;;;;33.58;17.60;;;;;;;4.14;100.00;92775.63;4987556;28;20718;-77
2023/12/12 00:59:15;;;;;;;29.50;15.70;;;;;;;4.24;100.00;92777.06;4992831;28;20607;-77
2023/12/12 01:01:42;;;;;;;26.95;15.48;;;;;;;4.18;100.00;92775.25;5003950;28;20057;-76
2023/12/12 01:04:09;;;;;;;26.67;15.73;;;;;;;4.31;100.00;92794.94;4987941;28;20061;-77
2023/12/12 01:06:36;;;;;;;26.13;14.10;;;;;;;4.26;100.00;92803.13;4992994;28;20063;-77
2023/12/12 01:09:03;;;;;;;20.77;12.52;;;;;;;4.37;100.00;92799.28;4993909;28;20061;-77
2023/12/12 01:11:32;;;;;;;25.90;14.48;;;;;;;4.31;100.00;92798.28;4987403;28;20519;-77
2023/12/12 01:13:59;;;;;;;25.63;12.75;;;;;;;4.33;100.00;92808.25;4989652;28;20061;-76
2023/12/12 01:16:26;;;;;;;27.27;14.07;;;;;;;4.36;100.00;92808.66;4988036;28;20050;-77
2023/12/12 01:18:52;;;;;;;24.38;13.40;;;;;;;4.40;100.00;92806.56;4987702;28;20048;-77
2023/12/12 01:21:19;;;;;;;27.63;15.38;;;;;;;4.17;100.00;92789.72;4989130;28;20072;-77
2023/12/12 01:23:51;;;;;;;22.45;13.95;;;;;;;4.24;100.00;92805.84;4989709;28;20053;-77
2023/12/12 01:26:19;;;;;;;25.55;15.07;;;;;;;4.32;100.00;92792.22;4987308;28;20050;-77
2023/12/12 01:28:48;;;;;;;21.90;13.20;;;;;;;4.26;100.00;92793.72;4990416;28;20054;-77
2023/12/12 01:31:15;;;;;;;23.05;12.90;;;;;;;4.13;100.00;92778.34;4988408;28;20458;-77
2023/12/12 01:33:42;;;;;;;26.40;13.68;;;;;;;4.26;100.00;92808.97;4993449;28;21096;-77
2023/12/12 01:36:10;;;;;;;22.90;12.90;;;;;;;4.34;100.00;92808.06;4988093;28;20046;-78
2023/12/12 01:38:37;;;;;;;22.40;12.57;;;;;;;4.36;100.00;92792.66;4988357;28;20459;-77
2023/12/12 01:41:05;;;;;;;25.52;13.45;;;;;;;4.37;100.00;92777.22;4992797;28;20054;-77
2023/12/12 01:43:33;;;;;;;21.52;12.90;;;;;;;4.48;100.00;92791.19;4988258;28;20049;-76
2023/12/12 01:46:03;;;;;;;25.77;13.75;;;;;;;4.54;100.00;92777.72;4996968;28;20050;-76
2023/12/12 01:48:31;;;;;;;23.38;14.02;;;;;;;4.55;100.00;92781.84;4990118;28;20054;-76
2023/12/12 01:50:58;;;;;;;25.63;13.65;;;;;;;4.64;100.00;92784.28;4988387;28;20089;-76
2023/12/12 01:53:28;;;;;;;21.02;13.35;;;;;;;4.63;100.00;92788.56;4992268;28;20054;-77
2023/12/12 01:55:56;;;;;;;24.90;16.52;;;;;;;4.65;100.00;92779.00;4989490;28;20522;-76
2023/12/12 01:58:25;;;;;;;26.90;17.35;;;;;;;4.65;100.00;92781.56;4990449;28;20046;-77
2023/12/12 02:00:53;;;;;;;30.77;16.63;;;;;;;4.72;100.00;92780.81;4990973;28;20057;-77
2023/12/12 02:03:23;;;;;;;26.83;16.52;;;;;;;4.60;100.00;92766.06;4991119;28;20501;-77
2023/12/12 02:05:51;;;;;;;31.65;17.83;;;;;;;4.72;100.00;92775.72;4991447;28;20423;-77
2023/12/12 02:08:18;;;;;;;29.67;15.77;;;;;;;4.70;100.00;92770.81;4999134;28;20125;-77
2023/12/12 02:10:46;;;;;;;23.02;15.68;;;;;;;4.69;100.00;92779.41;4991664;28;20050;-77
2023/12/12 02:13:13;;;;;;;28.48;16.45;;;;;;;4.75;100.00;92788.06;4991694;28;20043;-77
2023/12/12 02:15:39;;;;;;;24.08;15.40;;;;;;;4.73;100.00;92795.91;4993195;28;20062;-77
2023/12/12 02:18:06;;;;;;;29.75;16.55;;;;;;;4.72;100.00;92798.63;4996835;28;20059;-77
2023/12/12 02:20:35;;;;;;;29.30;15.38;;;;;;;4.47;100.00;92809.16;4994039;28;20054;-77
2023/12/12 02:23:03;;;;;;;25.88;15.40;;;;;;;3.72;100.00;92782.22;4998243;28;20056;-77
2023/12/12 02:25:30;;;;;;;25.10;14.60;;;;;;;3.95;100.00;92797.34;4996060;28;20150;-77
2023/12/12 02:27:59;;;;;;;24.58;15.80;;;;;;;4.07;100.00;92810.34;4991309;28;20054;-77
2023/12/12 02:30:26;;;;;;;26.83;14.93;;;;;;;3.78;100.00;92780.69;4991079;28;20116;-77
2023/12/12 02:32:53;;;;;;;20.95;14.43;;;;;;;3.70;100.00;92789.22;4999746;28;20053;-77
2023/12/12 02:35:20;;;;;;;24.88;15.43;;;;;;;3.44;100.00;92785.41;5002372;28;20054;-77
2023/12/12 02:37:47;;;;;;;24.55;15.70;;;;;;;3.57;100.00;92788.09;5000115;28;20054;-77
2023/12/12 02:40:15;;;;;;;26.45;14.98;;;;;;;3.69;100.00;92793.50;4990696;28;20891;-76
2023/12/12 02:42:46;;;;;;;22.58;14.38;;;;;;;3.61;100.00;92794.41;5002455;28;20046;-76
2023/12/12 02:45:13;;;;;;;26.75;14.35;;;;;;;3.58;100.00;92815.09;4997313;28;20078;-76
2023/12/12 02:47:41;;;;;;;21.88;14.35;;;;;;;3.31;100.00;92819.00;4990375;28;20069;-76
2023/12/12 02:50:08;;;;;;;24.27;14.35;;;;;;;3.36;100.00;92823.56;4990400;28;20065;-76
2023/12/12 02:52:35;;;;;;;23.73;14.30;;;;;;;3.43;100.00;92830.31;4991140;28;20051;-77
2023/12/12 02:55:02;;;;;;;24.40;13.15;;;;;;;3.45;100.00;92822.50;4990297;28;20054;-77
2023/12/12 02:57:30;;;;;;;22.95;14.57;;;;;;;3.60;100.00;92813.16;4990160;28;20132;-77
2023/12/12 02:59:57;;;;;;;22.42;13.18;;;;;;;3.46;100.00;92814.72;4991308;28;20076;-77
2023/12/12 03:02:24;;;;;;;21.10;12.13;;;;;;;3.45;100.00;92812.34;4995070;28;20056;-76
2023/12/12 03:04:51;;;;;;;25.90;13.60;;;;;;;3.59;100.00;92813.31;4990760;28;20058;-76
2023/12/12 03:07:18;;;;;;;23.83;13.77;;;;;;;3.21;100.00;92788.81;4992205;28;20133;-77
2023/12/12 03:09:45;;;;;;;22.48;14.30;;;;;;;3.40;100.00;92809.56;4989815;28;20052;-77
2023/12/12 03:12:12;;;;;;;27.73;16.25;;;;;;;3.58;100.00;92817.63;4990153;28;20050;-77
2023/12/12 03:14:40;;;;;;;25.92;17.35;;;;;;;3.63;100.00;92801.84;4991761;28;20136;-77
2023/12/12 03:17:07;;;;;;;23.17;15.15;;;;;;;3.71;100.00;92794.13;5002822;28;20052;-77
2023/12/12 03:19:34;;;;;;;22.58;14.85;;;;;;;3.58;100.00;92766.81;4993188;28;20046;-76
2023/12/12 03:22:01;;;;;;;25.70;15.13;;;;;;;3.75;100.00;92794.53;4991449;28;20202;-77
2023/12/12 03:24:28;;;;;;;27.98;16.70;;;;;;;3.86;100.00;92789.03;4990615;28;20633;-77
2023/12/12 03:26:55;;;;;;;26.17;16.35;;;;;;;3.94;100.00;92800.03;4989742;28;20053;-77
2023/12/12 03:29:22;;;;;;;24.98;14.20;;;;;;;3.99;100.00;92807.91;4990330;28;20057;-77
2023/12/12 03:31:50;;;;;;;22.55;13.90;;;;;;;3.64;100.00;92815.31;5001525;28;20049;-77
2023/12/12 03:34:17;;;;;;;23.75;14.80;;;;;;;3.64;100.00;92803.41;5000939;28;20052;-77
2023/12/12 03:36:45;;;;;;;23.85;14.77;;;;;;;3.66;100.00;92798.16;5004196;28;20480;-77
2023/12/12 03:39:12;;;;;;;24.98;15.95;;;;;;;3.58;100.00;92797.31;4998091;28;20049;-77
2023/12/12 03:41:40;;;;;;;24.55;15.40;;;;;;;3.63;100.00;92791.69;4997496;28;20051;-77
2023/12/12 03:44:07;;;;;;;28.15;15.20;;;;;;;3.68;100.00;92786.06;4989723;28;20129;-77
2023/12/12 03:46:34;;;;;;;23.52;15.07;;;;;;;3.76;100.00;92791.06;4989942;28;20050;-77
2023/12/12 03:49:02;;;;;;;31.77;17.08;;;;;;;3.74;100.00;92778.53;4989166;28;20050;-77
2023/12/12 03:51:29;;;;;;;26.42;16.40;;;;;;;3.94;100.00;92792.41;4988796;28;20548;-78
2023/12/12 03:53:56;;;;;;;26.63;15.55;;;;;;;3.87;100.00;92777.91;4988784;28;20078;-78
2023/12/12 03:56:23;;;;;;;29.27;16.48;;;;;;;4.10;100.00;92796.50;4989451;28;20050;-78
2023/12/12 03:58:50;;;;;;;24.73;16.20;;;;;;;4.21;100.00;92805.41;5003264;28;20060;-77
2023/12/12 04:01:17;;;;;;;27.25;16.67;;;;;;;4.20;100.00;92799.53;4990985;28;20046;-77
2023/12/12 04:03:43;;;;;;;28.35;16.85;;;;;;;4.23;100.00;92801.72;4989193;28;20050;-76
2023/12/12 04:06:12;;;;;;;29.02;19.02;;;;;;;4.28;100.00;92812.13;4989959;28;20065;-76
2023/12/12 04:08:39;;;;;;;41.20;24.27;;;;;;;4.25;100.00;92815.03;4996472;28;20056;-76
2023/12/12 04:11:06;;;;;;;40.10;23.85;;;;;;;4.19;100.00;92812.41;4995908;28;20046;-76
2023/12/12 04:13:33;;;;;;;36.90;21.85;;;;;;;4.19;100.00;92825.94;4990126;28;20050;-76
2023/12/12 04:16:00;;;;;;;38.20;22.52;;;;;;;4.16;100.00;92823.72;4988498;28;20060;-77
2023/12/12 04:18:26;;;;;;;36.83;24.02;;;;;;;4.06;100.00;92821.47;4997304;28;20123;-77
2023/12/12 04:20:53;;;;;;;37.58;22.45;;;;;;;4.07;100.00;92837.53;4991857;28;20522;-77
2023/12/12 04:23:22;;;;;;;38.28;22.10;;;;;;;3.98;100.00;92809.66;4989970;28;20060;-78
2023/12/12 04:25:49;;;;;;;35.22;21.80;;;;;;;4.10;100.00;92816.81;4990420;28;20047;-77
2023/12/12 04:28:16;;;;;;;34.70;20.58;;;;;;;4.16;100.00;92833.13;4989956;28;20058;-77
2023/12/12 04:30:42;;;;;;;31.40;18.52;;;;;;;4.18;100.00;92831.19;4988239;28;20591;-78
2023/12/12 04:33:09;;;;;;;28.60;18.85;;;;;;;4.11;100.00;92818.38;4988311;28;20050;-77
2023/12/12 04:35:38;;;;;;;24.85;16.55;;;;;;;4.23;100.00;92836.50;4991217;28;20046;-77
2023/12/12 04:38:05;;;;;;;26.98;16.75;;;;;;;4.31;100.00;92840.72;4988238;28;20057;-77
2023/12/12 04:40:33;;;;;;;27.92;15.52;;;;;;;4.36;100.00;92846.81;4988388;28;20048;-77
2023/12/12 04:43:00;;;;;;;32.03;16.00;;;;;;;4.46;100.00;92845.75;4988309;28;20141;-77
2023/12/12 04:45:27;;;;;;;26.92;15.77;;;;;;;4.52;100.00;92839.94;4992168;28;20050;-77
2023/12/12 04:47:54;;;;;;;25.73;16.75;;;;;;;4.60;100.00;92829.66;4999266;28;20054;-76
2023/12/12 04:50:21;;;;;;;22.95;14.20;;;;;;;4.62;100.00;92840.41;4995806;28;20047;-76
2023/12/12 04:52:48;;;;;;;24.98;14.35;;;;;;;4.66;100.00;92836.53;4996173;28;20662;-76
2023/12/12 04:55:15;;;;;;;28.83;15.23;;;;;;;4.68;100.00;92836.38;4992465;28;20046;-77
2023/12/12 04:57:44;;;;;;;29.67;17.63;;;;;;;4.67;100.00;92839.84;4991276;28;20054;-77
2023/12/12 05:00:14;;;;;;;26.08;16.80;;;;;;;4.74;100.00;92845.81;4989074;28;20776;-76
2023/12/12 05:02:41;;;;;;;28.05;18.25;;;;;;;4.76;100.00;92843.06;4988805;28;20069;-76
2023/12/12 05:05:08;;;;;;;28.13;18.15;;;;;;;4.84;100.00;92848.03;4988755;28;20065;-77
2023/12/12 05:07:35;;;;;;;31.58;19.45;;;;;;;4.82;100.00;92850.00;4987877;28;20051;-77
2023/12/12 05:10:03;;;;;;;32.90;19.70;;;;;;;4.85;100.00;92854.69;4988447;28;20053;-77
2023/12/12 05:12:29;;;;;;;37.38;21.20;;;;;;;4.90;100.00;92862.56;4988742;28;20468;-77
2023/12/12 05:14:58;;;;;;;42.90;27.27;;;;;;;4.94;100.00;92857.91;4988004;28;20046;-77
2023/12/12 05:17:25;;;;;;;25.90;17.63;;;;;;;4.93;100.00;92864.78;4987989;28;20116;-78
2023/12/12 05:19:52;;;;;;;23.25;14.93;;;;;;;4.95;100.00;92860.28;4987612;28;20142;-77
2023/12/12 05:22:19;;;;;;;24.38;15.18;;;;;;;5.03;100.00;92859.34;5000163;28;20042;-78
2023/12/12 05:24:46;;;;;;;23.92;15.82;;;;;;;5.10;100.00;92861.16;4997879;28;20042;-77
2023/12/12 05:27:13;;;;;;;35.65;21.70;;;;;;;5.03;100.00;92859.34;5000313;28;20124;-77
2023/12/12 05:29:39;;;;;;;37.05;23.30;;;;;;;5.03;100.00;92878.91;4999179;28;20050;-77
2023/12/12 05:32:08;;;;;;;162.93;88.32;;;;;;;4.97;100.00;92872.03;4999192;28;20046;-77
2023/12/12 05:34:35;;;;;;;86.93;45.88;;;;;;;4.79;100.00;92861.31;4996330;28;20045;-77
2023/12/12 05:37:02;;;;;;;82.40;43.00;;;;;;;4.70;100.00;92857.31;5001466;28;20058;-77
2023/12/12 05:39:29;;;;;;;130.40;67.57;;;;;;;4.78;100.00;92858.97;4996364;28;20506;-77
2023/12/12 05:41:56;;;;;;;136.98;68.47;;;;;;;4.73;100.00;92849.34;4998482;28;20048;-77
2023/12/12 05:44:24;;;;;;;164.43;78.53;;;;;;;4.90;100.00;92872.75;4997398;28;20050;-78
2023/12/12 05:46:51;;;;;;;134.73;67.60;;;;;;;4.98;100.00;92868.50;4995274;28;20050;-77
2023/12/12 05:49:21;;;;;;;81.05;43.00;;;;;;;4.94;100.00;92863.00;4995257;28;20042;-76
2023/12/12 05:51:48;;;;;;;47.58;30.05;;;;;;;4.87;100.00;92879.97;4995888;28;20046;-77
2023/12/12 05:54:15;;;;;;;54.83;32.10;;;;;;;4.75;100.00;92880.47;4996685;28;20048;-77
2023/12/12 05:56:45;;;;;;;67.65;38.22;;;;;;;4.84;100.00;92887.97;4996012;28;20049;-76
2023/12/12 05:59:14;;;;;;;42.83;26.20;;;;;;;4.67;100.00;92878.03;4996166;28;20052;-77
2023/12/12 06:01:41;;;;;;;37.97;21.50;;;;;;;4.55;100.00;92881.03;4998823;28;20053;-77
2023/12/12 06:04:11;;;;;;;41.67;23.90;;;;;;;4.57;100.00;92867.38;5000682;28;20534;-77
2023/12/12 06:06:43;;;;;;;35.67;21.90;;;;;;;4.63;100.00;92856.47;4999124;28;20047;-78
2023/12/12 06:09:11;;;;;;;38.17;23.17;;;;;;;4.79;100.00;92866.41;5001404;28;20067;-77
2023/12/12 06:11:38;;;;;;;41.35;23.45;;;;;;;4.90;100.00;92866.88;5000038;28;20045;-77
2023/12/12 06:14:05;;;;;;;43.42;23.42;;;;;;;4.94;100.00;92873.19;4994446;28;20045;-77
2023/12/12 06:16:32;;;;;;;37.78;23.30;;;;;;;4.89;100.00;92870.38;4997015;28;20516;-77
2023/12/12 06:18:59;;;;;;;43.13;27.27;;;;;;;4.71;100.00;92869.06;4999447;28;20073;-77
2023/12/12 06:21:26;;;;;;;45.30;29.05;;;;;;;4.66;100.00;92869.63;5002279;28;20392;-77
2023/12/12 06:23:55;;;;;;;48.45;30.98;;;;;;;4.57;100.00;92859.75;4999814;28;20054;-77
2023/12/12 06:26:21;;;;;;;51.85;32.10;;;;;;;4.31;100.00;92868.69;4999024;28;20048;-77
2023/12/12 06:28:48;;;;;;;56.92;36.33;;;;;;;4.44;100.00;92873.13;4997079;28;20435;-77
2023/12/12 06:31:15;;;;;;;54.80;34.30;;;;;;;4.46;100.00;92866.09;4994239;28;20050;-77
2023/12/12 06:33:42;;;;;;;51.10;35.45;;;;;;;4.40;100.00;92853.13;4991395;28;20407;-77
2023/12/12 06:36:10;;;;;;;47.28;33.67;;;;;;;4.61;100.00;92876.22;4990928;28;20057;-77
2023/12/12 06:38:37;;;;;;;59.60;39.30;;;;;;;4.74;100.00;92883.19;4990329;28;20046;-76
2023/12/12 06:41:06;;;;;;;56.83;36.92;;;;;;;4.82;100.00;92883.84;4993740;28;20078;-77
2023/12/12 06:43:33;;;;;;;54.97;38.55;;;;;;;4.89;100.00;92886.47;4991919;28;20054;-76
2023/12/12 06:46:00;;;;;;;61.25;41.03;;;;;;;5.01;100.00;92885.97;4993147;28;20050;-77
2023/12/12 06:48:27;;;;;;;60.13;36.80;;;;;;;5.05;100.00;92887.94;4998184;28;20525;-77
2023/12/12 06:50:54;;;;;;;66.13;41.28;;;;;;;5.14;100.00;92893.69;4992775;28;20046;-76
2023/12/12 06:53:21;;;;;;;69.13;41.78;;;;;;;4.98;100.00;92881.22;4990609;28;20157;-76
2023/12/12 06:55:48;;;;;;;98.43;54.97;;;;;;;4.82;100.00;92898.34;4991438;28;20062;-76
2023/12/12 06:58:18;;;;;;;121.03;71.00;;;;;;;4.78;100.00;92904.75;4994750;28;20050;-76
2023/12/12 07:00:45;;;;;;;94.97;56.60;;;;;;;4.65;100.00;92913.03;4991137;28;20133;-77
2023/12/12 07:03:12;;;;;;;65.25;44.90;;;;;;;4.49;100.00;92912.28;4990562;28;20050;-76
2023/12/12 07:05:39;;;;;;;60.72;37.80;;;;;;;4.64;100.00;92916.56;4989566;28;20053;-77
2023/12/12 07:08:06;;;;;;;59.35;40.17;;;;;;;4.70;100.00;92920.13;4997305;28;20047;-77
2023/12/12 07:10:33;;;;;;;51.30;34.53;;;;;;;4.51;100.00;92895.13;5003107;28;20050;-76
2023/12/12 07:13:00;;;;;;;48.28;29.52;;;;;;;4.72;100.00;92920.75;4992740;28;20057;-77
2023/12/12 07:15:29;;;;;;;34.92;22.90;;;;;;;4.62;100.00;92923.56;5007937;28;20053;-77
2023/12/12 07:17:56;;;;;;;44.63;25.02;;;;;;;4.35;100.00;92911.34;4992563;28;20424;-77
2023/12/12 07:20:23;;;;;;;51.65;29.98;;;;;;;4.20;100.00;92936.00;5006643;28;20060;-77
2023/12/12 07:22:50;;;;;;;44.97;27.98;;;;;;;4.04;100.00;92939.53;4994352;28;20496;-77
2023/12/12 07:25:17;;;;;;;47.35;32.92;;;;;;;3.72;100.00;92912.56;4989602;28;20050;-77
2023/12/12 07:27:44;;;;;;;52.42;36.60;;;;;;;3.78;100.00;92918.69;4989245;28;20046;-77
2023/12/12 07:30:12;;;;;;;50.47;33.60;;;;;;;4.00;100.00;92932.28;4989160;28;20054;-76
2023/12/12 07:32:40;;;;;;;45.38;32.50;;;;;;;3.97;100.00;92941.97;4989350;28;21144;-76
2023/12/12 07:35:08;;;;;;;46.78;32.50;;;;;;;4.19;100.00;92931.91;4993494;28;20502;-76
2023/12/12 07:37:35;;;;;;;50.90;31.77;;;;;;;4.38;100.00;92943.28;4991366;28;20054;-76
2023/12/12 07:40:04;;;;;;;48.63;27.98;;;;;;;4.56;100.00;92932.72;4993344;28;20472;-77
2023/12/12 07:42:31;;;;;;;50.15;27.75;;;;;;;4.60;100.00;92949.22;4989369;28;20050;-76
2023/12/12 07:44:58;;;;;;;40.80;24.77;;;;;;;4.72;100.00;92941.88;4989049;28;20046;-77
2023/12/12 07:47:25;;;;;;;41.67;25.65;;;;;;;4.87;100.00;92938.50;4989884;28;20075;-76
2023/12/12 07:49:54;;;;;;;38.67;25.83;;;;;;;5.04;100.00;92937.31;4996673;28;20049;-76
2023/12/12 07:52:21;;;;;;;49.40;24.40;;;;;;;5.12;100.00;92935.59;4993531;28;20133;-76
2023/12/12 07:54:48;;;;;;;42.25;23.55;;;;;;;5.16;100.00;92927.44;5002630;28;20072;-76
2023/12/12 07:57:15;;;;;;;49.08;26.98;;;;;;;5.28;100.00;92935.34;4990706;28;20169;-77
2023/12/12 07:59:43;;;;;;;56.17;30.17;;;;;;;5.46;100.00;92949.41;4989020;28;20097;-76
2023/12/12 08:02:10;;;;;;;57.92;31.55;;;;;;;5.47;100.00;92948.44;4990718;28;20137;-77
2023/12/12 08:04:37;;;;;;;62.50;31.92;;;;;;;5.38;100.00;92952.06;5005415;28;20050;-77
2023/12/12 08:07:06;;;;;;;51.30;29.58;;;;;;;5.39;100.00;92948.56;4995479;28;20053;-77
2023/12/12 08:09:33;;;;;;;51.45;31.98;;;;;;;5.55;100.00;92955.16;5004321;28;20133;-76
2023/12/12 08:12:00;;;;;;;48.83;29.77;;;;;;;5.42;100.00;92943.88;4990772;28;20411;-76
2023/12/12 08:14:27;;;;;;;53.45;33.08;;;;;;;5.51;100.00;92936.09;4990947;28;20411;-76
2023/12/12 08:16:54;;;;;;;44.10;26.23;;;;;;;5.57;100.00;92945.56;5004445;28;20431;-76
2023/12/12 08:19:21;;;;;;;48.75;27.10;;;;;;;5.45;100.00;92932.53;4989643;28;20061;-76
2023/12/12 08:21:48;;;;;;;41.63;26.17;;;;;;;5.64;100.00;92953.25;4989197;28;20058;-76
2023/12/12 08:24:16;;;;;;;45.80;25.25;;;;;;;5.59;100.00;92944.41;4988739;28;20046;-76
2023/12/12 08:26:46;;;;;;;45.28;26.35;;;;;;;5.71;100.00;92947.25;4995340;28;20085;-76
2023/12/12 08:29:14;;;;;;;48.17;27.90;;;;;;;5.82;100.00;92932.38;5006296;28;20132;-77
2023/12/12 08:31:41;;;;;;;48.25;27.85;;;;;;;6.10;100.00;92934.94;5003156;28;20038;-76
2023/12/12 08:34:08;;;;;;;46.40;27.08;;;;;;;6.28;100.00;92939.53;4992045;28;20061;-76
2023/12/12 08:36:35;;;;;;;56.53;30.90;;;;;;;6.37;100.00;92924.06;4999108;28;20077;-76
2023/12/12 08:39:03;;;;;;;56.40;30.48;;;;;;;6.62;100.00;92937.09;4988843;28;20054;-77
2023/12/12 08:41:32;;;;;;;53.22;32.80;;;;;;;6.84;100.00;92933.63;4987910;28;20050;-76
2023/12/12 08:43:59;;;;;;;56.08;33.25;;;;;;;7.03;100.00;92935.41;5000685;28;20496;-76
2023/12/12 08:46:26;;;;;;;58.45;31.38;;;;;;;7.00;100.00;92928.16;5003539;28;20060;-76
2023/12/12 08:48:54;;;;;;;48.92;31.15;;;;;;;7.07;100.00;92946.84;4999652;28;20125;-76
2023/12/12 08:51:40;;;;;;;53.22;31.25;;;;;;;7.16;100.00;92931.31;4997347;28;20050;-76
2023/12/12 08:54:06;;;;;;;;;;;;;;;7.40;100.00;92934.28;4996472;28;20493;-76
2023/12/12 08:56:36;;;;;;;49.42;27.23;;;;;;;7.52;100.00;92932.72;4987807;28;19926;-76
2023/12/12 08:59:04;;;;;;;41.28;25.83;;;;;;;7.62;100.00;92935.66;5004312;28;20049;-76
2023/12/12 09:01:31;;;;;;;43.08;26.17;;;;;;;7.53;100.00;92902.81;4989956;28;20053;-77
2023/12/12 09:03:58;;;;;;;48.20;27.83;;;;;;;7.91;100.00;92947.41;4988268;28;20046;-77
2023/12/12 09:06:25;;;;;;;42.72;23.80;;;;;;;7.88;100.00;92943.50;4991451;28;20133;-77
2023/12/12 09:08:52;;;;;;;39.78;22.58;;;;;;;7.93;100.00;92940.31;4992046;28;20053;-77
2023/12/12 09:11:19;;;;;;;49.47;23.73;;;;;;;8.01;99.35;92955.47;4991774;28;20054;-77
2023/12/12 09:13:47;;;;;;;46.20;23.58;;;;;;;7.91;100.00;92957.66;4992395;28;20042;-77
2023/12/12 09:16:14;;;;;;;38.33;20.15;;;;;;;8.02;100.00;92957.81;4993542;28;20046;-77
2023/12/12 09:18:41;;;;;;;43.25;22.67;;;;;;;8.06;100.00;92950.53;4992585;28;20420;-77
2023/12/12 09:21:08;;;;;;;48.50;23.95;;;;;;;7.88;100.00;92951.94;4992069;28;20065;-77
2023/12/12 09:23:34;;;;;;;44.50;22.38;;;;;;;7.81;99.75;92953.72;5004925;28;20056;-77
2023/12/12 09:26:01;;;;;;;52.70;22.95;;;;;;;7.78;100.00;92961.78;4999565;28;20054;-78
2023/12/12 09:28:28;;;;;;;39.97;20.67;;;;;;;7.61;100.00;92956.28;4992006;28;20133;-77
2023/12/12 09:30:57;;;;;;;40.60;20.85;;;;;;;7.61;100.00;92954.53;4991745;28;20588;-77
2023/12/12 09:33:23;;;;;;;40.20;18.10;;;;;;;7.49;100.00;92938.19;4992094;28;20046;-77
2023/12/12 09:35:50;;;;;;;30.23;15.95;;;;;;;7.66;100.00;92951.38;4999301;28;20050;-77
2023/12/12 09:38:17;;;;;;;35.10;17.52;;;;;;;7.79;100.00;92934.44;4995223;28;20050;-77
2023/12/12 09:40:45;;;;;;;44.33;19.20;;;;;;;7.47;100.00;92907.75;4996434;28;20572;-77
2023/12/12 09:43:13;;;;;;;37.08;17.65;;;;;;;7.78;100.00;92931.09;4991459;28;20104;-77
2023/12/12 09:45:46;;;;;;;41.90;19.42;;;;;;;8.03;100.00;92925.34;4991851;28;20959;-77
2023/12/12 09:48:15;;;;;;;38.53;19.52;;;;;;;8.23;97.79;92932.19;4991837;28;20057;-77
2023/12/12 09:50:43;;;;;;;33.83;18.42;;;;;;;8.30;99.02;92930.41;4995323;28;20060;-77
2023/12/12 09:53:11;;;;;;;42.60;20.35;;;;;;;8.46;99.74;92931.72;5005706;28;20061;-77
2023/12/12 09:55:38;;;;;;;41.85;19.05;;;;;;;8.63;97.57;92934.63;4992544;28;20046;-77
2023/12/12 09:58:05;;;;;;;43.38;21.75;;;;;;;8.58;97.43;92929.34;4993973;28;20415;-77
2023/12/12 10:00:32;;;;;;;45.00;21.25;;;;;;;8.66;94.28;92928.31;4996192;28;20046;-75
2023/12/12 10:03:04;;;;;;;47.38;22.60;;;;;;;8.72;96.29;92911.34;4998416;28;20402;-74
2023/12/12 10:05:34;;;;;;;46.53;22.42;;;;;;;8.85;95.12;92920.72;4993093;28;20393;-74
2023/12/12 10:08:03;;;;;;;34.45;18.48;;;;;;;8.92;94.28;92903.53;4996825;28;20053;-75
2023/12/12 10:10:30;;;;;;;34.42;18.58;;;;;;;9.20;94.46;92910.84;4993232;28;20050;-74
2023/12/12 10:12:57;;;;;;;32.42;18.98;;;;;;;9.35;91.69;92918.22;4993319;28;20141;-75
2023/12/12 10:15:25;;;;;;;20.60;12.13;;;;;;;9.55;92.93;92931.88;4992883;28;20538;-74
2023/12/12 10:17:57;;;;;;;10.40;5.63;;;;;;;9.68;92.82;92936.91;4994617;28;20050;-75
2023/12/12 10:20:26;;;;;;;7.47;4.78;;;;;;;9.75;91.70;92937.66;4993630;28;20060;-75
2023/12/12 10:22:58;;;;;;;8.10;4.47;;;;;;;9.85;91.91;92937.16;4994640;28;20050;-75
2023/12/12 10:25:25;;;;;;;7.70;4.05;;;;;;;9.96;90.96;92925.41;4994678;28;20050;-75
2023/12/12 10:27:53;;;;;;;7.10;3.85;;;;;;;10.05;88.25;92918.22;4995023;28;20208;-75
2023/12/12 10:30:21;;;;;;;7.90;3.78;;;;;;;9.98;84.71;92907.22;4992007;28;20420;-76
2023/12/12 10:32:51;;;;;;;7.63;3.65;;;;;;;10.16;83.95;92932.13;4998300;28;20057;-75
2023/12/12 10:35:18;;;;;;;10.93;4.68;;;;;;;10.01;82.10;92917.84;4996954;28;20046;-75
2023/12/12 10:37:45;;;;;;;34.65;17.65;;;;;;;10.15;87.40;92921.06;4995089;28;20074;-75
2023/12/12 10:40:15;;;;;;;17.40;8.98;;;;;;;10.27;88.63;92922.91;4992563;28;20050;-75
2023/12/12 10:42:42;;;;;;;44.55;20.48;;;;;;;10.39;87.22;92926.34;4992134;28;20094;-74
2023/12/12 10:45:13;;;;;;;19.70;9.50;;;;;;;10.35;88.07;92932.13;4996793;28;20068;-74
2023/12/12 10:47:42;;;;;;;5.95;3.30;;;;;;;9.95;86.50;92925.63;4997002;28;20050;-75
2023/12/12 10:50:17;;;;;;;7.43;3.88;;;;;;;9.74;88.12;92920.69;4994182;28;20495;-75
2023/12/12 10:52:45;;;;;;;131.07;52.58;;;;;;;10.10;91.54;92918.34;5000937;28;20049;-75
2023/12/12 10:55:15;;;;;;;45.33;22.70;;;;;;;10.28;90.02;92929.66;4991737;28;20488;-75
2023/12/12 10:57:44;;;;;;;13.65;6.43;;;;;;;10.02;86.11;92941.75;4990594;28;20080;-74
2023/12/12 11:00:14;;;;;;;9.85;5.47;;;;;;;10.22;88.16;92945.88;5003740;28;20057;-75
2023/12/12 11:02:42;;;;;;;9.27;4.40;;;;;;;10.35;88.43;92943.19;4989863;28;20037;-75
2023/12/12 11:05:11;;;;;;;10.55;5.10;;;;;;;10.50;88.17;92936.91;4993097;28;20133;-75
2023/12/12 11:07:38;;;;;;;8.63;3.70;;;;;;;10.66;89.03;92938.13;4991847;28;20050;-75
2023/12/12 11:10:09;;;;;;;8.50;3.95;;;;;;;10.31;85.04;92947.16;4998047;28;20047;-75
2023/12/12 11:12:41;;;;;;;6.30;3.90;;;;;;;10.25;85.74;92946.25;4991045;28;20065;-75
2023/12/12 11:15:11;;;;;;;8.18;3.60;;;;;;;9.85;85.94;92913.28;4998029;28;20899;-75
2023/12/12 11:17:38;;;;;;;11.25;5.35;;;;;;;10.09;86.46;92934.75;4994710;28;20385;-75
2023/12/12 11:20:15;;;;;;;10.02;5.35;;;;;;;10.18;87.64;92924.22;4989609;28;20050;-75